createdAt,value
2023-03-29T00:00:23.770Z,-1.04
2023-03-29T00:03:21.812Z,-1.07
2023-03-29T00:06:03.360Z,-1.09
2023-03-29T00:08:55.439Z,-1.12
2023-03-29T00:11:47.574Z,-1.14
2023-03-29T00:14:39.674Z,-1.17
2023-03-29T00:17:31.853Z,-1.20
2023-03-29T00:20:23.926Z,-1.22
2023-03-29T00:22:58.522Z,-1.25
2023-03-29T00:25:50.628Z,-1.28
2023-03-29T00:28:42.640Z,-1.30
2023-03-29T00:31:34.974Z,-1.30
2023-03-29T00:34:09.879Z,-1.32
2023-03-29T00:37:01.845Z,-1.35
2023-03-29T00:39:54.253Z,-1.35
2023-03-29T00:42:47.780Z,-1.40
2023-03-29T00:45:40.174Z,-1.42
2023-03-29T00:48:25.036Z,-1.44
2023-03-29T00:51:10.059Z,-1.47
2023-03-29T00:54:05.896Z,-1.47
2023-03-29T00:56:58.136Z,-1.47
2023-03-29T00:59:52.935Z,-1.48
2023-03-29T01:02:45.669Z,-1.49
2023-03-29T01:05:41.751Z,-1.48
2023-03-29T01:08:37.954Z,-1.49
2023-03-29T01:11:36.887Z,-1.49
2023-03-29T01:14:35.272Z,-1.50
2023-03-29T01:17:27.275Z,-1.54
2023-03-29T01:20:23.109Z,-1.57
2023-03-29T01:23:33.756Z,-1.61
2023-03-29T01:26:37.378Z,-1.62
2023-03-29T01:29:34.485Z,-1.65
2023-03-29T01:32:34.872Z,-1.66
2023-03-29T01:35:32.836Z,-1.67
2023-03-29T01:38:28.943Z,-1.70
2023-03-29T01:41:21.227Z,-1.77
2023-03-29T01:44:18.245Z,-1.87
2023-03-29T01:47:19.197Z,-1.92
2023-03-29T01:50:18.253Z,-1.98
2023-03-29T01:53:15.204Z,-2.02
2023-03-29T01:56:11.625Z,-2.04
2023-03-29T01:59:09.242Z,-2.10
2023-03-29T02:01:50.417Z,-2.14
2023-03-29T02:04:48.017Z,-2.17
2023-03-29T02:07:42.524Z,-2.24
2023-03-29T02:10:36.800Z,-2.28
2023-03-29T02:13:27.780Z,-2.30
2023-03-29T02:16:20.398Z,-2.36
2023-03-29T02:19:15.361Z,-2.39
2023-03-29T02:22:10.681Z,-2.40
2023-03-29T02:24:54.802Z,-2.40
2023-03-29T02:27:47.216Z,-2.40
2023-03-29T02:30:33.598Z,-2.40
2023-03-29T02:33:31.251Z,-2.37
2023-03-29T02:36:18.699Z,-2.33
2023-03-29T02:39:15.336Z,-2.34
2023-03-29T02:42:09.261Z,-2.35
2023-03-29T02:45:03.401Z,-2.38
2023-03-29T02:47:58.457Z,-2.40
2023-03-29T02:50:55.049Z,-2.43
2023-03-29T02:53:52.014Z,-2.47
2023-03-29T02:56:49.275Z,-2.52
2023-03-29T02:59:43.986Z,-2.56
2023-03-29T03:02:27.765Z,-2.60
2023-03-29T03:05:20.424Z,-2.64
2023-03-29T03:08:14.583Z,-2.68
2023-03-29T03:11:08.135Z,-2.71
2023-03-29T03:14:00.245Z,-2.75
2023-03-29T03:16:52.803Z,-2.79
2023-03-29T03:19:27.585Z,-2.84
2023-03-29T03:22:19.610Z,-2.88
2023-03-29T03:25:12.043Z,-2.92
2023-03-29T03:28:05.011Z,-2.96
2023-03-29T03:30:57.448Z,-2.99
2023-03-29T03:33:49.605Z,-3.01
2023-03-29T03:36:41.626Z,-3.04
2023-03-29T03:39:33.644Z,-3.06
2023-03-29T03:42:28.137Z,-3.07
2023-03-29T03:45:02.933Z,-3.09
2023-03-29T03:47:55.080Z,-3.11
2023-03-29T03:50:51.408Z,-3.13
2023-03-29T03:53:43.447Z,-3.15
2023-03-29T03:56:35.652Z,-3.19
2023-03-29T03:59:10.842Z,-3.24
2023-03-29T04:02:02.891Z,-3.29
2023-03-29T04:04:37.650Z,-3.31
2023-03-29T04:07:29.751Z,-3.33
2023-03-29T04:10:22.633Z,-3.35
2023-03-29T04:13:14.640Z,-3.36
2023-03-29T04:15:54.170Z,-3.38
2023-03-29T04:18:46.468Z,-3.41
2023-03-29T04:21:38.586Z,-3.40
2023-03-29T04:24:30.665Z,-3.40
2023-03-29T04:27:22.777Z,-3.41
2023-03-29T04:30:15.790Z,-3.40
2023-03-29T04:33:07.919Z,-3.41
2023-03-29T04:36:00.603Z,-3.40
2023-03-29T04:38:47.430Z,-3.40
2023-03-29T04:41:40.344Z,-3.41
2023-03-29T04:44:16.158Z,-3.39
2023-03-29T04:46:55.527Z,-3.37
2023-03-29T04:49:47.757Z,-3.35
2023-03-29T04:52:39.994Z,-3.32
2023-03-29T04:55:32.038Z,-3.29
2023-03-29T04:58:27.116Z,-3.24
2023-03-29T05:01:11.467Z,-3.20
2023-03-29T05:04:04.798Z,-3.14
2023-03-29T05:06:57.402Z,-3.07
2023-03-29T05:09:49.493Z,-3.01
2023-03-29T05:12:41.484Z,-2.95
2023-03-29T05:15:33.620Z,-2.87
2023-03-29T05:18:25.642Z,-2.80
2023-03-29T05:21:18.479Z,-2.51
2023-03-29T05:24:10.974Z,-1.76
2023-03-29T05:26:52.670Z,-0.81
2023-03-29T05:29:44.793Z,0.23
2023-03-29T05:32:39.071Z,1.29
2023-03-29T05:35:31.391Z,2.38
2023-03-29T05:38:23.460Z,3.47
2023-03-29T05:41:16.486Z,4.51
2023-03-29T05:44:08.605Z,5.55
2023-03-29T05:46:43.404Z,6.42
2023-03-29T05:49:19.129Z,7.18
2023-03-29T05:52:11.621Z,7.91
2023-03-29T05:55:04.224Z,8.46
2023-03-29T05:57:46.620Z,8.80
2023-03-29T06:00:39.148Z,8.76
2023-03-29T06:03:25.157Z,8.61
2023-03-29T06:06:17.557Z,8.42
2023-03-29T06:08:49.454Z,8.47
2023-03-29T06:11:22.261Z,8.48
2023-03-29T06:14:14.566Z,8.12
2023-03-29T06:16:51.720Z,7.67
2023-03-29T06:19:44.330Z,7.13
2023-03-29T06:22:36.789Z,6.59
2023-03-29T06:25:19.674Z,6.11
2023-03-29T06:28:12.425Z,5.65
2023-03-29T06:31:05.182Z,5.19
2023-03-29T06:33:53.785Z,4.82
2023-03-29T06:36:45.823Z,4.50
2023-03-29T06:39:37.846Z,4.20
2023-03-29T06:42:21.691Z,3.93
2023-03-29T06:45:15.971Z,3.64
2023-03-29T06:48:09.053Z,3.40
2023-03-29T06:50:40.997Z,3.21
2023-03-29T06:53:32.954Z,3.04
2023-03-29T06:56:09.797Z,2.91
2023-03-29T06:59:01.965Z,2.79
2023-03-29T07:01:55.117Z,2.78
2023-03-29T07:04:47.527Z,2.75
2023-03-29T07:07:22.642Z,2.73
2023-03-29T07:10:15.010Z,2.74
2023-03-29T07:13:08.781Z,2.77
2023-03-29T07:15:44.950Z,2.81
2023-03-29T07:18:37.069Z,2.85
2023-03-29T07:21:29.611Z,2.92
2023-03-29T07:24:22.601Z,2.99
2023-03-29T07:27:14.687Z,3.06
2023-03-29T07:30:11.196Z,3.14
2023-03-29T07:32:46.343Z,3.20
2023-03-29T07:35:21.695Z,3.25
2023-03-29T07:37:54.954Z,3.31
2023-03-29T07:40:31.026Z,3.37
2023-03-29T07:43:24.031Z,3.45
2023-03-29T07:46:16.010Z,3.54
2023-03-29T07:49:08.668Z,3.63
2023-03-29T07:52:01.433Z,3.76
2023-03-29T07:54:53.412Z,3.92
2023-03-29T07:57:32.735Z,4.08
2023-03-29T08:00:25.765Z,4.23
2023-03-29T08:03:01.966Z,4.35
2023-03-29T08:05:54.307Z,4.55
2023-03-29T08:08:46.408Z,4.84
2023-03-29T08:11:28.956Z,5.52
2023-03-29T08:14:06.765Z,7.17
2023-03-29T08:16:58.925Z,9.51
2023-03-29T08:19:51.701Z,11.65
2023-03-29T08:22:44.737Z,13.84
2023-03-29T08:25:37.318Z,15.97
2023-03-29T08:28:11.858Z,17.31
2023-03-29T08:30:46.764Z,18.47
2023-03-29T08:33:38.793Z,20.12
2023-03-29T08:36:30.908Z,21.87
2023-03-29T08:39:23.050Z,23.20
2023-03-29T08:42:34.235Z,24.03
2023-03-29T08:45:37.001Z,24.82
2023-03-29T08:48:17.690Z,25.18
2023-03-29T08:51:19.030Z,25.69
2023-03-29T08:53:54.894Z,26.32
2023-03-29T08:56:52.295Z,26.68
2023-03-29T08:59:46.737Z,27.10
2023-03-29T09:02:27.734Z,27.56
2023-03-29T09:05:26.761Z,27.91
2023-03-29T09:08:20.852Z,28.16
2023-03-29T09:11:33.701Z,28.31
2023-03-29T09:14:48.985Z,29.10
2023-03-29T09:17:49.712Z,30.28
2023-03-29T09:20:35.742Z,31.36
2023-03-29T09:23:44.375Z,32.43
2023-03-29T09:26:31.110Z,33.22
2023-03-29T09:29:34.066Z,34.11
2023-03-29T09:32:32.989Z,34.68
2023-03-29T09:35:32.234Z,35.17
2023-03-29T09:38:24.471Z,35.77
2023-03-29T09:41:24.956Z,36.36
2023-03-29T09:44:30.180Z,36.92
2023-03-29T09:47:08.487Z,37.02
2023-03-29T09:50:05.498Z,36.94
2023-03-29T09:52:57.801Z,36.63
2023-03-29T09:55:40.873Z,36.53
2023-03-29T09:58:33.185Z,36.74
2023-03-29T10:01:18.791Z,36.96
2023-03-29T10:04:01.576Z,37.27
2023-03-29T10:06:54.886Z,37.60
2023-03-29T10:09:47.987Z,37.78
2023-03-29T10:12:40.181Z,37.35
2023-03-29T10:15:33.385Z,37.28
2023-03-29T10:18:12.583Z,37.44
2023-03-29T10:21:02.593Z,37.40
2023-03-29T10:24:01.086Z,36.82
2023-03-29T10:26:55.849Z,35.99
2023-03-29T10:29:36.330Z,36.33
2023-03-29T10:32:33.413Z,36.70
2023-03-29T10:35:13.418Z,37.00
2023-03-29T10:37:52.988Z,37.32
2023-03-29T10:40:48.061Z,37.79
2023-03-29T10:43:29.450Z,38.15
2023-03-29T10:46:32.962Z,38.49
2023-03-29T10:49:27.017Z,38.22
2023-03-29T10:51:58.906Z,37.94
2023-03-29T10:54:31.223Z,37.85
2023-03-29T10:57:10.432Z,37.35
2023-03-29T10:59:53.024Z,37.33
2023-03-29T11:03:07.201Z,37.24
2023-03-29T11:05:55.688Z,37.39
2023-03-29T11:08:57.398Z,37.52
2023-03-29T11:12:15.773Z,37.28
2023-03-29T11:15:16.639Z,37.34
2023-03-29T11:18:26.238Z,37.54
2023-03-29T11:21:28.831Z,37.59
2023-03-29T11:24:29.906Z,37.51
2023-03-29T11:27:33.792Z,37.09
2023-03-29T11:30:32.083Z,37.34
2023-03-29T11:33:38.638Z,37.30
2023-03-29T11:36:44.581Z,37.01
2023-03-29T11:39:50.891Z,36.77
2023-03-29T11:42:48.944Z,36.61
2023-03-29T11:45:46.925Z,36.51
2023-03-29T11:48:42.948Z,36.46
2023-03-29T11:51:39.270Z,36.39
2023-03-29T11:54:35.926Z,36.33
2023-03-29T11:57:32.074Z,36.05
2023-03-29T12:00:28.505Z,35.74
2023-03-29T12:03:32.247Z,35.77
2023-03-29T12:06:09.288Z,35.81
2023-03-29T12:09:06.805Z,35.63
2023-03-29T12:12:04.445Z,35.66
2023-03-29T12:14:54.171Z,35.64
2023-03-29T12:17:50.172Z,35.48
2023-03-29T12:20:47.641Z,35.34
2023-03-29T12:23:42.405Z,35.17
2023-03-29T12:26:56.572Z,34.97
2023-03-29T12:30:04.626Z,34.60
2023-03-29T12:33:19.721Z,33.83
2023-03-29T12:36:31.568Z,32.79
2023-03-29T12:39:25.597Z,31.29
2023-03-29T12:42:19.739Z,30.54
2023-03-29T12:45:20.248Z,29.80
2023-03-29T12:48:19.819Z,29.03
2023-03-29T12:51:16.151Z,27.90
2023-03-29T12:54:11.237Z,26.68
2023-03-29T12:57:00.261Z,25.90
2023-03-29T12:59:52.442Z,24.81
2023-03-29T13:02:38.300Z,24.07
2023-03-29T13:05:39.519Z,23.13
2023-03-29T13:08:36.392Z,22.34
2023-03-29T13:11:32.640Z,21.58
2023-03-29T13:14:30.960Z,21.03
2023-03-29T13:17:45.150Z,20.49
2023-03-29T13:20:47.354Z,19.80
2023-03-29T13:23:46.752Z,18.88
2023-03-29T13:26:43.746Z,18.30
2023-03-29T13:30:04.559Z,18.12
2023-03-29T13:33:18.055Z,17.98
2023-03-29T13:36:16.903Z,17.87
2023-03-29T13:38:54.505Z,17.68
2023-03-29T13:41:48.802Z,17.35
2023-03-29T13:44:41.280Z,17.18
2023-03-29T13:47:54.942Z,17.04
2023-03-29T13:51:00.882Z,16.87
2023-03-29T13:53:50.548Z,16.73
2023-03-29T13:56:51.505Z,16.56
2023-03-29T13:59:50.767Z,16.41
2023-03-29T14:02:49.680Z,16.25
2023-03-29T14:05:48.957Z,16.03
2023-03-29T14:08:43.045Z,15.66
2023-03-29T14:11:36.439Z,15.43
2023-03-29T14:14:18.798Z,15.22
2023-03-29T14:17:14.307Z,15.13
2023-03-29T14:20:10.095Z,15.05
2023-03-29T14:22:45.445Z,15.00
2023-03-29T14:25:27.288Z,14.91
2023-03-29T14:28:28.188Z,14.78
2023-03-29T14:31:25.140Z,14.49
2023-03-29T14:34:12.963Z,14.30
2023-03-29T14:37:05.642Z,14.23
2023-03-29T14:39:59.560Z,14.18
2023-03-29T14:42:42.455Z,14.14
2023-03-29T14:45:34.891Z,14.11
2023-03-29T14:48:25.967Z,13.98
2023-03-29T14:51:18.302Z,13.84
2023-03-29T14:54:07.551Z,13.72
2023-03-29T14:56:52.368Z,13.49
2023-03-29T14:59:42.030Z,13.36
2023-03-29T15:02:31.170Z,13.26
2023-03-29T15:05:32.551Z,13.17
2023-03-29T15:08:19.227Z,13.06
2023-03-29T15:11:18.453Z,12.97
2023-03-29T15:14:16.042Z,12.93
2023-03-29T15:17:31.306Z,12.88
2023-03-29T15:20:21.392Z,12.79
2023-03-29T15:23:23.906Z,12.73
2023-03-29T15:26:21.650Z,12.69
2023-03-29T15:29:17.284Z,12.58
2023-03-29T15:31:59.893Z,12.52
2023-03-29T15:35:00.873Z,12.44
2023-03-29T15:37:53.738Z,12.35
2023-03-29T15:40:41.049Z,12.18
2023-03-29T15:43:33.207Z,12.05
2023-03-29T15:46:25.481Z,11.95
2023-03-29T15:49:00.432Z,11.83
2023-03-29T15:51:32.134Z,11.77
2023-03-29T15:54:24.868Z,11.70
2023-03-29T15:57:18.580Z,11.63
2023-03-29T16:00:18.889Z,11.49
2023-03-29T16:02:54.364Z,11.39
2023-03-29T16:05:31.102Z,11.28
2023-03-29T16:08:13.999Z,11.20
2023-03-29T16:11:06.810Z,11.14
2023-03-29T16:13:41.493Z,11.09
2023-03-29T16:16:34.823Z,11.06
2023-03-29T16:19:27.662Z,11.04
2023-03-29T16:22:19.728Z,10.98
2023-03-29T16:25:15.777Z,10.91
2023-03-29T16:28:09.050Z,10.85
2023-03-29T16:30:52.352Z,10.79
2023-03-29T16:33:44.651Z,10.72
2023-03-29T16:36:36.647Z,10.62
2023-03-29T16:39:28.783Z,10.53
2023-03-29T16:42:20.900Z,10.44
2023-03-29T16:45:16.072Z,10.35
2023-03-29T16:47:51.193Z,10.27
2023-03-29T16:50:43.462Z,10.22
2023-03-29T16:53:36.134Z,10.14
2023-03-29T16:56:28.828Z,10.07
2023-03-29T16:59:20.983Z,10.02
2023-03-29T17:02:13.471Z,9.95
2023-03-29T17:04:54.209Z,9.91
2023-03-29T17:07:46.825Z,9.86
2023-03-29T17:10:29.214Z,9.81
2023-03-29T17:13:23.786Z,9.75
2023-03-29T17:16:16.093Z,9.69
2023-03-29T17:19:08.303Z,9.62
2023-03-29T17:22:00.730Z,9.57
2023-03-29T17:24:43.857Z,9.55
2023-03-29T17:27:15.879Z,9.53
2023-03-29T17:30:09.956Z,9.51
2023-03-29T17:33:02.350Z,9.49
2023-03-29T17:35:37.063Z,9.46
2023-03-29T17:38:30.316Z,9.43
2023-03-29T17:41:22.838Z,9.36
2023-03-29T17:44:14.951Z,9.31
2023-03-29T17:47:07.093Z,9.24
2023-03-29T17:49:59.380Z,9.18
2023-03-29T17:52:51.672Z,9.15
2023-03-29T17:55:46.072Z,9.10
2023-03-29T17:58:38.247Z,9.06
2023-03-29T18:01:30.825Z,9.02
2023-03-29T18:04:23.122Z,8.95
2023-03-29T18:07:15.397Z,8.91
2023-03-29T18:10:09.234Z,8.85
2023-03-29T18:13:01.375Z,8.78
2023-03-29T18:15:57.234Z,8.73
2023-03-29T18:18:41.580Z,8.70
2023-03-29T18:21:19.497Z,8.67
2023-03-29T18:23:57.381Z,8.64
2023-03-29T18:26:41.236Z,8.61
2023-03-29T18:29:33.713Z,8.58
2023-03-29T18:32:25.887Z,8.54
2023-03-29T18:37:29.621Z,8.49
2023-03-29T18:40:24.744Z,8.43
2023-03-29T18:42:57.388Z,8.39
2023-03-29T18:45:32.367Z,8.35
2023-03-29T18:48:09.989Z,8.33
2023-03-29T18:51:03.808Z,8.30
2023-03-29T18:53:48.343Z,8.28
2023-03-29T18:56:40.332Z,8.25
2023-03-29T18:59:32.503Z,8.22
2023-03-29T19:02:24.714Z,8.18
2023-03-29T19:05:09.809Z,8.14
2023-03-29T19:08:02.750Z,8.09
2023-03-29T19:10:39.178Z,8.04
2023-03-29T19:13:31.321Z,7.97
2023-03-29T19:16:23.381Z,7.90
2023-03-29T19:19:15.542Z,7.86
2023-03-29T19:22:07.798Z,7.81
2023-03-29T19:24:59.718Z,7.76
2023-03-29T19:27:51.730Z,7.72
2023-03-29T19:30:43.782Z,7.66
2023-03-29T19:33:35.748Z,7.62
2023-03-29T19:36:28.189Z,7.57
2023-03-29T19:39:20.827Z,7.53
2023-03-29T19:41:52.913Z,7.49
2023-03-29T19:44:44.870Z,7.43
2023-03-29T19:47:37.302Z,7.38
2023-03-29T19:50:29.649Z,7.32
2023-03-29T19:53:23.029Z,7.29
2023-03-29T19:56:15.847Z,7.26
2023-03-29T19:58:57.845Z,7.22
2023-03-29T20:01:51.760Z,7.17
2023-03-29T20:04:24.608Z,7.13
2023-03-29T20:06:59.718Z,7.08
2023-03-29T20:09:37.689Z,7.03
2023-03-29T20:12:29.749Z,6.97
2023-03-29T20:15:25.549Z,6.90
2023-03-29T20:18:16.138Z,6.84
2023-03-29T20:21:09.041Z,6.78
2023-03-29T20:23:41.595Z,6.72
2023-03-29T20:26:18.514Z,6.70
2023-03-29T20:29:11.409Z,6.65
2023-03-29T20:32:03.492Z,6.62
2023-03-29T20:34:55.631Z,6.56
2023-03-29T20:37:47.626Z,6.52
2023-03-29T20:40:40.825Z,6.48
2023-03-29T20:43:37.789Z,6.44
2023-03-29T20:46:34.198Z,6.40
2023-03-29T20:49:26.105Z,6.37
2023-03-29T20:52:18.813Z,6.36
2023-03-29T20:55:00.498Z,6.35
2023-03-29T20:57:54.252Z,6.34
2023-03-29T21:00:46.857Z,6.30
2023-03-29T21:03:30.363Z,6.28
2023-03-29T21:06:24.431Z,6.29
2023-03-29T21:09:16.424Z,6.30
2023-03-29T21:12:08.970Z,6.33
2023-03-29T21:15:02.356Z,6.37
2023-03-29T21:17:54.499Z,6.40
2023-03-29T21:20:29.859Z,6.41
2023-03-29T21:23:22.036Z,6.39
2023-03-29T21:26:14.142Z,6.37
2023-03-29T21:29:06.917Z,6.38
2023-03-29T21:31:41.972Z,6.41
2023-03-29T21:34:16.235Z,6.43
2023-03-29T21:37:08.277Z,6.46
2023-03-29T21:40:00.543Z,6.50
2023-03-29T21:42:52.600Z,6.53
2023-03-29T21:45:44.629Z,6.55
2023-03-29T21:48:37.014Z,6.58
2023-03-29T21:51:11.969Z,6.60
2023-03-29T21:54:04.171Z,6.63
2023-03-29T21:56:56.289Z,6.66
2023-03-29T21:59:48.292Z,6.68
2023-03-29T22:02:25.663Z,6.68
2023-03-29T22:05:17.819Z,6.68
2023-03-29T22:08:10.798Z,6.68
2023-03-29T22:11:09.066Z,6.68
2023-03-29T22:13:54.181Z,6.69
2023-03-29T22:16:37.160Z,6.69
2023-03-29T22:19:29.299Z,6.70
2023-03-29T22:22:07.158Z,6.68
2023-03-29T22:24:59.191Z,6.66
2023-03-29T22:27:31.139Z,6.64
2023-03-29T22:30:23.404Z,6.64
2023-03-29T22:33:04.502Z,6.64
2023-03-29T22:35:57.357Z,6.62
2023-03-29T22:38:50.465Z,6.64
2023-03-29T22:41:43.010Z,6.64
2023-03-29T22:44:17.541Z,6.65
2023-03-29T22:47:09.692Z,6.66
2023-03-29T22:49:51.965Z,6.66
2023-03-29T22:52:43.984Z,6.66
2023-03-29T22:55:16.484Z,6.66
2023-03-29T22:58:08.771Z,6.70
2023-03-29T23:01:01.015Z,6.72
2023-03-29T23:03:53.087Z,6.71
2023-03-29T23:06:27.975Z,6.71
2023-03-29T23:09:20.072Z,6.70
2023-03-29T23:12:02.452Z,6.69
2023-03-29T23:14:55.768Z,6.70
2023-03-29T23:17:47.936Z,6.71
2023-03-29T23:20:40.728Z,6.73
2023-03-29T23:23:12.857Z,6.74
2023-03-29T23:26:05.394Z,6.75
2023-03-29T23:28:51.457Z,6.77
2023-03-29T23:31:44.255Z,6.79
2023-03-29T23:34:36.388Z,6.80
2023-03-29T23:37:28.359Z,6.82
2023-03-29T23:40:20.962Z,6.83
2023-03-29T23:43:13.525Z,6.86
2023-03-29T23:45:59.643Z,6.88
2023-03-29T23:48:53.171Z,6.91
2023-03-29T23:51:48.216Z,6.94
2023-03-29T23:54:40.233Z,6.97
2023-03-29T23:57:34.970Z,6.99
